This is the latest recevied weather packets stored in our database for station/object OSTR-WX. If no packets are shown the sender has not sent any weather packets the latest 10 day(s).
| Time | Temp. | Humidity | Pressure | Rain* | Wind** | Luminosity | Snow |
|---|---|---|---|---|---|---|---|
| 1777353475 | 4.44° C | 75% | 1025.2 hPa | - | - | - | - |
| 1777352526 | 3.89° C | 76% | 1025.1 hPa | - | - | - | - |
| 1777352518 | 3.89° C | 76% | 1025.1 hPa | - | - | - | - |
| 1777351562 | 2.78° C | 80% | 1025 hPa | - | - | - | - |
| 1777350604 | 2.78° C | 80% | 1025 hPa | - | - | - | - |
| 1777349647 | 2.22° C | 81% | 1024.8 hPa | - | - | - | - |
| 1777348697 | 2.22° C | 83% | 1024.6 hPa | - | - | - | - |
| 1777348691 | 2.22° C | 83% | 1024.6 hPa | - | - | - | - |
| 1777347733 | 1.67° C | 84% | 1024.4 hPa | - | - | - | - |
| 1777346784 | 1.11° C | 86% | 1024.3 hPa | - | - | - | - |
| 1777346777 | 1.11° C | 86% | 1024.3 hPa | - | - | - | - |
| 1777345827 | 1.11° C | 87% | 1024.3 hPa | - | - | - | - |
| 1777345820 | 1.11° C | 87% | 1024.3 hPa | - | - | - | - |
| 1777344869 | 0.56° C | 87% | 1024.3 hPa | - | - | - | - |
| 1777344862 | 0.56° C | 87% | 1024.3 hPa | - | - | - | - |
| 1777343905 | 0.56° C | 86% | 1024.3 hPa | - | - | - | - |
| 1777342948 | 0.56° C | 85% | 1024.1 hPa | - | - | - | - |
| 1777341999 | 1.11° C | 84% | 1024 hPa | - | - | - | - |
| 1777341992 | 1.11° C | 84% | 1024 hPa | - | - | - | - |
| 1777341034 | 1.11° C | 86% | 1024 hPa | - | - | - | - |
| 1777340077 | 1.11° C | 84% | 1023.9 hPa | - | - | - | - |
| 1777339120 | 1.11° C | 84% | 1023.9 hPa | - | - | - | - |
| 1777338163 | 1.11° C | 84% | 1024 hPa | - | - | - | - |
| 1777337206 | 1.67° C | 83% | 1023.8 hPa | - | - | - | - |
| 1777336255 | 1.67° C | 82% | 1023.9 hPa | - | - | - | - |
* Rain since midnight (hover to see other rain measurements)
** Current wind speed in m/s (hover to see current wind gust speed)